Leyendecker II PSRC Data

Date Time Air Temperature Relative Humidity Dewpoint Windchill Heat Index Wind Speed Wind Dir. Rain Solar Radiation Soil Temperature
2m 2m 3m 3m 10cm
US/Mountain F % F F F MPH deg in MJ/m^2 F
max avg avg
2020-09-16 00:05:00 57.6 93.9 55.8 57.6 57.6 0.0 1.2 0.5 298.2 330.2 0.00 0.0000000 72.6
2020-09-16 00:10:00 57.5 94.3 55.9 57.5 57.5 1.0 1.0 0.1 273.0 268.6 0.00 0.0000000 72.5
2020-09-16 00:15:00 57.6 94.4 56.0 57.6 57.6 0.0 2.1 1.4 300.1 291.9 0.00 0.0000000 72.5
2020-09-16 00:20:00 57.4 94.7 55.9 57.4 57.4 0.0 2.2 0.7 269.4 268.3 0.00 0.0000000 72.5
2020-09-16 00:25:00 57.4 95.1 56.0 57.4 57.4 0.8 1.7 0.5 332.4 307.9 0.00 0.0000000 72.5
2020-09-16 00:30:00 57.3 94.7 55.8 57.3 57.3 3.0 3.0 2.0 302.0 304.7 0.00 0.0000000 72.4
2020-09-16 00:35:00 57.4 94.6 55.9 57.4 57.4 0.0 2.8 1.4 312.2 288.6 0.00 0.0000000 72.4
2020-09-16 00:40:00 57.4 93.5 55.5 57.4 57.4 1.2 1.2 0.1 279.5 294.1 0.00 0.0000000 72.4
2020-09-16 00:45:00 57.4 94.4 55.8 57.4 57.4 0.0 1.7 0.7 198.0 273.0 0.00 0.0000000 72.4
2020-09-16 00:50:00 57.5 94.6 56.0 57.5 57.5 0.0 1.7 1.1 268.3 218.1 0.00 0.0000000 72.3
2020-09-16 00:55:00 57.3 94.7 55.8 57.3 57.3 0.0 0.0 0.0 279.8 0.0 0.00 0.0000000 72.3
2020-09-16 01:00:00 57.2 94.6 55.6 57.2 57.2 0.0 0.0 0.0 260.2 0.0 0.00 0.0000000 72.3
2020-09-16 01:05:00 56.9 93.9 55.1 56.9 56.9 0.0 0.0 0.0 300.4 0.0 0.00 0.0000000 72.2
2020-09-16 01:10:00 56.6 93.6 54.7 56.6 56.6 0.0 0.0 0.0 298.7 0.0 0.00 0.0000000 72.2
2020-09-16 01:15:00 56.4 94.0 54.7 56.4 56.4 0.0 0.0 0.0 316.1 0.0 0.00 0.0000000 72.2
2020-09-16 01:20:00 56.6 94.6 55.1 56.6 56.6 0.0 0.8 0.1 284.3 312.2 0.00 0.0000000 72.2
2020-09-16 01:25:00 56.6 94.4 55.0 56.6 56.6 0.0 0.0 0.0 294.7 0.0 0.00 0.0000000 72.2
2020-09-16 01:30:00 56.7 94.6 55.1 56.7 56.7 0.0 0.0 0.0 263.9 0.0 0.00 0.0000000 72.1
2020-09-16 01:35:00 56.6 94.3 54.9 56.6 56.6 0.0 0.0 0.0 330.7 0.0 0.00 0.0000000 72.1
2020-09-16 01:40:00 56.6 94.7 55.1 56.6 56.6 0.0 0.0 0.0 321.6 0.0 0.00 0.0000000 72.1
2020-09-16 01:45:00 56.2 93.4 54.3 56.2 56.2 0.0 0.0 0.0 25.9 0.0 0.00 0.0000000 72.1
2020-09-16 01:50:00 56.5 94.3 54.9 56.5 56.5 1.5 1.7 1.1 297.8 333.5 0.00 0.0000000 72.0
2020-09-16 01:55:00 56.4 93.7 54.6 56.4 56.4 1.9 2.1 1.6 287.1 291.4 0.00 0.0000000 72.0
2020-09-16 02:00:00 56.6 94.5 55.0 56.6 56.6 1.2 1.9 1.4 294.7 278.7 0.00 0.0000000 72.0
2020-09-16 02:05:00 56.6 94.8 55.1 56.6 56.6 0.0 1.3 0.9 286.1 282.3 0.00 0.0000000 72.0
2020-09-16 02:10:00 56.4 94.4 54.8 56.4 56.4 0.0 0.0 0.0 281.0 0.0 0.00 0.0000000 71.9
2020-09-16 02:15:00 56.1 94.5 54.5 56.1 56.1 0.0 0.0 0.0 228.5 0.0 0.00 0.0000000 71.9
2020-09-16 02:20:00 56.1 94.4 54.5 56.1 56.1 0.0 0.0 0.0 243.9 0.0 0.00 0.0000000 71.9
2020-09-16 02:25:00 56.0 94.9 54.6 56.0 56.0 0.0 0.0 0.0 243.7 0.0 0.00 0.0000000 71.9
2020-09-16 02:30:00 55.8 94.4 54.2 55.8 55.8 0.0 0.0 0.0 216.6 0.0 0.00 0.0000000 71.9
2020-09-16 02:35:00 55.5 93.9 53.7 55.5 55.5 1.2 1.2 0.7 277.8 282.8 0.00 0.0000000 71.8
2020-09-16 02:40:00 55.2 93.5 53.4 55.2 55.2 0.0 1.0 0.1 278.0 278.0 0.00 0.0000000 71.8
2020-09-16 02:45:00 55.0 92.3 52.8 55.0 55.0 0.0 0.0 0.0 8.3 0.0 0.00 0.0000000 71.8
2020-09-16 02:50:00 54.7 92.8 52.7 54.7 54.7 1.2 1.7 0.5 312.8 324.5 0.00 0.0000000 71.8
2020-09-16 02:55:00 54.6 91.2 52.1 54.6 54.6 1.7 2.4 1.1 326.3 315.6 0.00 0.0000000 71.7
2020-09-16 03:00:00 54.8 92.6 52.7 54.8 54.8 1.3 2.6 2.1 337.4 337.5 0.00 0.0000000 71.7
2020-09-16 03:05:00 55.0 93.2 53.0 55.0 55.0 0.0 1.2 0.2 269.5 28.4 0.00 0.0000000 71.7
2020-09-16 03:10:00 55.0 93.3 53.1 55.0 55.0 0.0 0.0 0.0 248.1 0.0 0.00 0.0000000 71.7
2020-09-16 03:15:00 54.9 92.8 52.8 54.9 54.9 0.0 1.5 0.7 300.5 286.5 0.00 0.0000000 71.7
2020-09-16 03:20:00 54.7 93.4 52.8 54.7 54.7 0.0 0.0 0.0 286.2 0.0 0.00 0.0000000 71.6
2020-09-16 03:25:00 54.4 92.9 52.4 54.4 54.4 0.0 0.0 0.0 233.8 0.0 0.00 0.0000000 71.6
2020-09-16 03:30:00 54.1 93.4 52.3 54.1 54.1 0.0 0.0 0.0 233.2 0.0 0.00 0.0000000 71.6
2020-09-16 03:35:00 54.1 93.8 52.4 54.1 54.1 0.0 0.0 0.0 142.9 0.0 0.00 0.0000000 71.6
2020-09-16 03:40:00 53.8 93.2 51.9 53.8 53.8 0.0 0.0 0.0 142.8 0.0 0.00 0.0000000 71.6
2020-09-16 03:45:00 53.7 93.9 52.0 53.7 53.7 0.0 0.0 0.0 142.9 0.0 0.00 0.0000000 71.5
2020-09-16 03:50:00 53.9 94.8 52.4 53.9 53.9 0.0 0.8 0.1 234.2 233.1 0.00 0.0000000 71.5
2020-09-16 03:55:00 54.0 94.8 52.5 54.0 54.0 0.0 0.0 0.0 207.9 0.0 0.00 0.0000000 71.5
2020-09-16 04:00:00 54.0 95.1 52.7 54.0 54.0 3.5 3.5 1.5 5.3 6.4 0.00 0.0000000 71.5
2020-09-16 04:05:00 54.0 95.4 52.8 54.0 54.0 0.0 3.5 1.9 2.2 353.7 0.00 0.0000000 71.5
2020-09-16 04:10:00 53.9 95.1 52.6 53.9 53.9 2.1 2.1 0.2 204.2 201.3 0.00 0.0000000 71.4
2020-09-16 04:15:00 54.0 94.8 52.5 54.0 54.0 0.0 2.1 0.6 168.8 191.1 0.00 0.0000000 71.4
2020-09-16 04:20:00 53.7 94.8 52.3 53.7 53.7 0.0 0.0 0.0 229.1 0.0 0.00 0.0000000 71.4
2020-09-16 04:25:00 53.7 94.8 52.3 53.7 53.7 0.0 0.0 0.0 169.2 0.0 0.00 0.0000000 71.4
2020-09-16 04:30:00 53.9 95.3 52.5 53.9 53.9 0.0 0.0 0.0 233.5 0.0 0.00 0.0000000 71.4
2020-09-16 04:35:00 54.1 95.5 52.8 54.1 54.1 1.3 1.3 0.2 262.4 263.8 0.00 0.0000000 71.3
2020-09-16 04:40:00 54.0 95.6 52.8 54.0 54.0 0.0 1.5 0.4 249.6 264.5 0.00 0.0000000 71.3
2020-09-16 04:45:00 54.0 95.8 52.8 54.0 54.0 1.9 2.1 1.4 286.2 285.5 0.00 0.0000000 71.3
2020-09-16 04:50:00 53.7 95.6 52.5 53.7 53.7 1.9 1.9 1.5 214.2 292.4 0.00 0.0000000 71.3
2020-09-16 04:55:00 53.6 95.4 52.3 53.6 53.6 0.0 2.2 0.9 287.5 287.8 0.00 0.0000000 71.3
2020-09-16 05:00:00 53.5 96.0 52.4 53.5 53.5 1.2 1.2 0.3 310.7 301.9 0.00 0.0000000 71.2
2020-09-16 05:05:00 53.2 94.3 51.6 53.2 53.2 1.3 1.9 1.1 327.4 323.9 0.00 0.0000000 71.2
2020-09-16 05:10:00 53.1 93.4 51.3 53.1 53.1 0.0 1.2 0.7 307.7 325.8 0.00 0.0000000 71.2
2020-09-16 05:15:00 53.1 94.1 51.5 53.1 53.1 0.0 0.0 0.0 333.7 0.0 0.00 0.0000000 71.2
2020-09-16 05:20:00 53.1 93.8 51.3 53.1 53.1 0.0 0.0 0.0 329.2 0.0 0.00 0.0000000 71.2
2020-09-16 05:25:00 52.9 94.1 51.2 52.9 52.9 0.0 0.0 0.0 147.2 0.0 0.00 0.0000000 71.2
2020-09-16 05:30:00 52.9 94.3 51.3 52.9 52.9 0.0 0.0 0.0 147.2 0.0 0.00 0.0000000 71.1
2020-09-16 05:35:00 52.8 94.4 51.2 52.8 52.8 0.0 0.0 0.0 147.2 0.0 0.00 0.0000000 71.1
2020-09-16 05:40:00 52.8 94.8 51.3 52.8 52.8 0.0 0.0 0.0 137.2 0.0 0.00 0.0000000 71.1
2020-09-16 05:45:00 52.8 94.1 51.1 52.8 52.8 0.0 0.0 0.0 2.3 0.0 0.00 0.0000000 71.1
2020-09-16 05:50:00 52.8 94.8 51.3 52.8 52.8 0.0 0.0 0.0 314.1 0.0 0.00 0.0000000 71.1
2020-09-16 05:55:00 52.8 94.6 51.3 52.8 52.8 0.0 0.0 0.0 313.0 0.0 0.00 0.0000000 71.0
2020-09-16 06:00:00 52.8 95.1 51.4 52.8 52.8 1.2 1.3 0.3 286.5 286.7 0.00 0.0000000 71.0
2020-09-16 06:05:00 53.0 95.4 51.7 53.0 53.0 0.0 1.3 0.3 245.0 286.3 0.00 0.0000000 71.0
2020-09-16 06:10:00 53.2 95.9 52.1 53.2 53.2 0.0 0.0 0.0 217.4 0.0 0.00 0.0000000 71.0
2020-09-16 06:15:00 53.1 95.9 52.0 53.1 53.1 1.5 1.9 0.7 307.2 296.4 0.00 0.0000000 71.0
2020-09-16 06:20:00 52.9 95.6 51.7 52.9 52.9 0.0 2.2 0.8 248.2 303.6 0.00 0.0000000 70.9
2020-09-16 06:25:00 53.1 96.2 52.1 53.1 53.1 0.0 1.0 0.2 240.0 260.0 0.00 0.0000000 70.9
2020-09-16 06:30:00 53.1 96.1 52.0 53.1 53.1 0.0 0.0 0.0 237.3 0.0 0.00 0.0000000 70.9
2020-09-16 06:35:00 53.0 96.3 52.0 53.0 53.0 1.5 1.5 1.1 258.7 273.3 0.00 0.0000000 70.9
2020-09-16 06:40:00 52.9 96.2 51.9 52.9 52.9 0.0 1.3 0.6 286.6 257.3 0.00 0.0000000 70.9
2020-09-16 06:45:00 52.6 95.8 51.5 52.6 52.6 0.0 0.0 0.0 295.7 0.0 0.00 0.0000063 70.8
2020-09-16 06:50:00 52.4 95.6 51.2 52.4 52.4 0.0 0.0 0.0 291.8 0.0 0.00 0.0003190 70.8
2020-09-16 06:55:00 52.1 94.8 50.7 52.1 52.1 2.1 2.2 0.5 332.6 335.9 0.00 0.0009846 70.8
2020-09-16 07:00:00 52.0 94.7 50.5 52.0 52.0 1.5 2.8 2.3 331.8 324.8 0.00 0.0023014 70.8
2020-09-16 07:05:00 52.1 94.6 50.6 52.1 52.1 0.0 1.5 0.5 337.8 340.7 0.00 0.0043308 70.8
2020-09-16 07:10:00 52.3 94.9 50.8 52.3 52.3 0.0 0.0 0.0 334.8 0.0 0.00 0.0106995 70.8
2020-09-16 07:15:00 52.8 95.2 51.4 52.8 52.8 0.0 0.0 0.0 337.6 0.0 0.00 0.0157968 70.8
2020-09-16 07:20:00 53.2 94.6 51.7 53.2 53.2 0.0 0.0 0.0 1.2 0.0 0.00 0.0208253 70.7
2020-09-16 07:25:00 53.9 93.9 52.1 53.9 53.9 0.0 0.0 0.0 7.9 0.0 0.00 0.0264986 70.7
2020-09-16 07:30:00 54.5 93.5 52.7 54.5 54.5 0.0 0.0 0.0 267.1 0.0 0.00 0.0317247 70.7
2020-09-16 07:35:00 55.5 92.9 53.4 55.5 55.5 0.0 0.0 0.0 252.5 0.0 0.00 0.0369958 70.7
2020-09-16 07:40:00 56.2 90.5 53.5 56.2 56.2 2.6 2.6 1.0 287.9 294.3 0.00 0.0420157 70.7
2020-09-16 07:45:00 56.7 84.7 52.1 56.7 56.7 3.1 4.6 3.6 304.2 286.2 0.00 0.0466362 70.7
2020-09-16 07:50:00 57.4 83.2 52.3 57.4 57.4 1.7 3.3 2.2 220.1 278.8 0.00 0.0513236 70.6
2020-09-16 07:55:00 58.1 79.2 51.7 58.1 58.1 3.1 4.4 3.3 315.2 294.2 0.00 0.0551200 70.6
2020-09-16 08:00:00 58.9 80.0 52.7 58.9 58.9 2.4 3.8 3.0 312.3 296.4 0.00 0.0586197 70.6
2020-09-16 08:05:00 59.8 78.3 53.1 59.8 59.8 2.8 3.1 2.3 301.6 289.8 0.00 0.0625230 70.6
2020-09-16 08:10:00 60.6 77.4 53.5 60.6 60.6 3.0 3.3 2.8 289.6 289.9 0.00 0.0663364 70.6
2020-09-16 08:15:00 61.3 76.0 53.7 61.3 61.3 4.2 4.2 3.3 296.5 284.6 0.00 0.0699598 70.6
2020-09-16 08:20:00 62.1 75.2 54.2 62.1 62.1 1.9 3.7 2.9 258.0 280.8 0.00 0.0743882 70.6
2020-09-16 08:25:00 63.0 71.3 53.5 63.0 63.0 3.5 3.5 2.5 271.5 287.5 0.00 0.0784471 70.6
2020-09-16 08:30:00 63.6 69.3 53.4 63.6 63.6 3.8 4.0 3.2 321.4 306.2 0.00 0.0826259 70.5
2020-09-16 08:35:00 64.4 68.3 53.7 64.4 64.4 1.9 3.3 2.2 300.4 297.9 0.00 0.0876698 70.5
2020-09-16 08:40:00 65.3 69.7 55.2 65.3 65.3 1.9 3.0 2.2 292.1 304.8 0.00 0.0972647 70.5
2020-09-16 08:45:00 66.2 65.1 54.1 66.2 66.2 1.3 2.2 1.7 228.8 258.2 0.00 0.1027783 70.5
2020-09-16 08:50:00 67.2 63.5 54.4 67.2 67.2 1.2 1.7 0.6 284.9 282.5 0.00 0.1081038 70.5
2020-09-16 08:55:00 67.8 60.9 53.8 67.8 67.8 1.3 2.2 1.8 313.6 291.0 0.00 0.1133035 70.5
2020-09-16 09:00:00 68.5 57.0 52.6 68.5 68.5 2.2 3.0 2.2 307.4 268.7 0.00 0.1186076 70.5
2020-09-16 09:05:00 69.0 57.8 53.6 69.0 69.0 1.7 2.8 2.1 300.8 269.2 0.00 0.1241054 70.5
2020-09-16 09:10:00 69.8 55.4 53.1 69.8 69.8 2.2 3.3 2.2 252.7 273.2 0.00 0.1294830 70.6
2020-09-16 09:15:00 70.3 56.8 54.2 70.3 70.3 2.8 3.1 2.6 288.4 266.6 0.00 0.1349763 70.6
2020-09-16 09:20:00 70.6 57.3 54.7 70.6 70.6 2.2 3.0 2.1 313.6 293.6 0.00 0.1399900 70.6
2020-09-16 09:25:00 71.5 58.4 56.2 71.5 71.5 2.6 2.8 1.9 302.7 329.5 0.00 0.1449989 70.6
2020-09-16 09:30:00 72.8 58.5 57.4 72.8 72.8 1.0 2.4 1.4 59.4 336.4 0.00 0.1501016 70.6
2020-09-16 09:35:00 73.7 55.0 56.6 73.7 73.7 1.9 2.4 1.7 271.3 354.1 0.00 0.1552454 70.6
2020-09-16 09:40:00 74.7 53.7 56.8 74.7 74.7 1.7 2.8 1.4 219.9 349.3 0.00 0.1602316 70.6
2020-09-16 09:45:00 74.8 54.1 57.1 74.8 74.8 3.0 3.7 2.5 75.0 91.4 0.00 0.1650910 70.7
2020-09-16 09:50:00 75.1 53.4 57.0 75.1 75.1 3.7 3.7 2.3 14.0 53.2 0.00 0.1704736 70.7
2020-09-16 09:55:00 74.6 53.8 56.8 74.6 74.6 4.9 5.1 3.2 110.2 93.6 0.00 0.1753376 70.7
2020-09-16 10:00:00 74.8 53.0 56.6 74.8 74.8 3.7 4.4 2.8 105.5 76.4 0.00 0.1806839 70.7
2020-09-16 10:05:00 75.5 52.6 56.9 75.5 75.5 3.1 4.4 2.6 131.5 91.9 0.00 0.1851878 70.8
2020-09-16 10:10:00 76.1 53.9 58.2 76.1 76.1 3.1 3.1 2.4 23.3 60.1 0.00 0.1895581 70.8
2020-09-16 10:15:00 76.2 52.9 57.8 76.2 76.2 2.2 8.0 3.5 140.0 103.8 0.00 0.1940147 70.8
2020-09-16 10:20:00 76.5 52.5 57.8 76.5 76.5 1.5 4.7 2.7 346.7 82.0 0.00 0.1990728 70.9
2020-09-16 10:25:00 76.7 52.6 58.1 76.7 76.7 2.4 5.3 2.8 34.9 96.7 0.00 0.2031364 70.9
2020-09-16 10:30:00 77.3 51.3 58.0 77.3 77.3 1.9 4.2 2.7 131.6 58.0 0.00 0.2069757 70.9
2020-09-16 10:35:00 77.3 50.9 57.7 77.3 77.3 3.7 4.4 2.7 167.6 95.6 0.00 0.2107284 71.0
2020-09-16 10:40:00 78.0 51.4 58.6 78.0 78.0 2.6 4.9 3.1 34.3 105.1 0.00 0.2150672 71.0
2020-09-16 10:45:00 78.4 48.2 57.3 78.4 78.4 2.1 3.5 2.5 5.0 57.4 0.00 0.2186610 71.0
2020-09-16 10:50:00 78.5 47.0 56.6 78.5 78.5 3.0 4.6 2.8 8.5 31.6 0.00 0.2228993 71.1
2020-09-16 10:55:00 78.8 47.6 57.2 78.8 78.8 3.5 3.8 3.1 115.6 107.6 0.00 0.2263183 71.1
2020-09-16 11:00:00 79.3 45.8 56.6 79.3 79.3 2.6 4.7 2.4 45.3 119.9 0.00 0.2299131 71.2
2020-09-16 11:05:00 80.0 44.7 56.5 80.0 80.0 2.8 3.7 2.8 167.7 24.2 0.00 0.2336710 71.2
2020-09-16 11:10:00 80.2 44.2 56.5 80.2 80.4 4.4 4.4 2.6 96.0 135.8 0.00 0.2371419 71.3
2020-09-16 11:15:00 80.5 48.7 59.4 80.5 81.1 2.6 4.9 2.4 39.2 95.9 0.00 0.2403409 71.3
2020-09-16 11:20:00 80.8 41.9 55.6 80.8 80.7 3.8 4.2 2.6 117.4 69.0 0.00 0.2436331 71.3
2020-09-16 11:25:00 80.3 42.0 55.2 80.3 80.3 4.9 4.9 3.0 84.0 39.2 0.00 0.2459422 71.4
2020-09-16 11:30:00 79.8 42.4 55.0 79.8 79.8 2.4 4.6 3.1 129.5 116.3 0.00 0.2492076 71.5
2020-09-16 11:35:00 80.7 41.2 55.0 80.7 80.5 4.4 5.1 2.8 129.0 116.6 0.00 0.2525485 71.5
2020-09-16 11:40:00 80.7 42.8 56.0 80.7 80.7 2.8 4.6 3.4 230.2 143.7 0.00 0.2544538 71.6
2020-09-16 11:45:00 81.0 43.4 56.6 81.0 81.0 5.3 5.3 3.3 103.2 73.3 0.00 0.2567779 71.6
2020-09-16 11:50:00 81.3 41.4 55.6 81.3 81.0 4.2 6.5 4.1 38.4 120.6 0.00 0.2590948 71.7
2020-09-16 11:55:00 81.3 41.2 55.5 81.3 81.0 3.1 4.7 3.7 38.9 99.7 0.00 0.2613788 71.7
2020-09-16 12:00:00 82.9 43.8 58.6 82.9 82.8 1.7 3.3 1.8 242.2 61.0 0.00 0.2633235 71.8
2020-09-16 12:05:00 83.1 41.1 57.1 83.1 82.6 1.5 3.7 2.5 234.6 163.5 0.00 0.2645111 71.9
2020-09-16 12:10:00 83.8 39.1 56.3 83.8 83.8 2.2 3.8 2.5 174.2 78.6 0.00 0.2667424 71.9
2020-09-16 12:15:00 83.3 37.5 54.8 83.3 83.3 2.2 3.7 2.5 183.6 216.1 0.00 0.2691553 72.0
2020-09-16 12:20:00 83.6 36.2 54.0 83.6 83.6 5.6 5.6 2.5 58.5 76.6 0.00 0.2718526 72.0
2020-09-16 12:25:00 83.6 34.8 52.9 83.6 83.6 1.5 4.7 2.8 152.7 18.2 0.00 0.2718459 72.1
2020-09-16 12:30:00 83.4 36.8 54.3 83.4 83.4 5.5 6.2 4.5 26.4 1.9 0.00 0.2719149 72.1
2020-09-16 12:35:00 83.4 34.1 52.2 83.4 83.4 3.7 6.0 3.7 47.9 33.5 0.00 0.2729536 72.2
2020-09-16 12:40:00 83.4 35.1 53.0 83.4 83.4 6.2 6.9 3.7 8.1 20.6 0.00 0.2739758 72.3
2020-09-16 12:45:00 83.2 33.0 51.1 83.2 83.2 1.9 7.1 4.8 141.0 48.1 0.00 0.2747643 72.3
2020-09-16 12:50:00 84.1 30.9 50.1 84.1 84.1 6.0 7.1 3.7 2.5 60.9 0.00 0.2755345 72.4
2020-09-16 12:55:00 83.8 31.6 50.5 83.8 83.8 3.8 6.9 5.3 22.6 24.6 0.00 0.2752405 72.4
2020-09-16 13:00:00 84.0 30.4 49.6 84.0 84.0 6.3 8.0 4.7 34.0 31.0 0.00 0.2755607 72.5
2020-09-16 13:05:00 83.8 29.5 48.6 83.8 83.8 2.4 6.9 3.3 170.3 147.9 0.00 0.2765266 72.6
2020-09-16 13:10:00 84.7 31.9 51.5 84.7 84.7 2.1 6.3 3.7 345.5 115.6 0.00 0.2767668 72.6
2020-09-16 13:15:00 85.0 25.8 46.1 85.0 85.0 8.5 9.7 6.0 309.3 320.6 0.00 0.2749646 72.7
2020-09-16 13:20:00 85.2 23.5 43.8 85.2 85.2 3.0 7.1 4.0 284.1 321.6 0.00 0.2759979 72.7
2020-09-16 13:25:00 85.6 20.6 40.7 85.6 85.6 3.3 8.1 5.2 216.1 286.5 0.00 0.2761434 72.8
2020-09-16 13:30:00 85.3 21.8 42.0 85.3 85.3 5.3 9.0 6.3 329.6 318.0 0.00 0.2753458 72.9
2020-09-16 13:35:00 85.5 24.8 45.5 85.5 85.5 6.5 6.5 4.3 343.4 326.3 0.00 0.2761784 72.9
2020-09-16 13:40:00 85.6 23.0 43.5 85.6 85.6 5.8 8.1 6.6 22.7 324.1 0.00 0.2755343 73.0
2020-09-16 13:45:00 85.9 28.6 49.6 85.9 85.9 8.3 8.3 5.9 345.7 336.5 0.00 0.2754400 73.1
2020-09-16 13:50:00 85.9 25.6 46.7 85.9 85.9 6.9 7.1 5.8 305.4 336.0 0.00 0.2747971 73.1
2020-09-16 13:55:00 85.8 28.0 48.9 85.8 85.8 3.7 6.5 4.3 28.6 7.3 0.00 0.2763671 73.1
2020-09-16 14:00:00 86.0 28.7 49.8 86.0 86.0 6.7 7.8 5.3 278.6 333.7 0.00 0.2803159 73.2
2020-09-16 14:05:00 86.5 27.7 49.3 86.5 86.5 6.3 8.1 5.8 335.4 309.7 0.00 0.2854453 73.3
2020-09-16 14:10:00 86.3 26.2 47.6 86.3 86.3 6.0 7.2 4.7 327.7 350.8 0.00 0.2799608 73.3
2020-09-16 14:15:00 86.6 26.8 48.5 86.6 86.6 3.5 8.0 5.0 84.9 356.8 0.00 0.2831052 73.4
2020-09-16 14:20:00 86.5 27.0 48.6 86.5 86.5 4.6 7.4 4.5 275.5 0.3 0.00 0.2886855 73.4
2020-09-16 14:25:00 88.1 27.2 50.1 88.1 88.1 2.8 4.6 2.8 276.3 269.3 0.00 0.2975588 73.5
2020-09-16 14:30:00 89.2 23.5 47.1 89.2 89.2 5.6 5.6 2.6 344.1 302.8 0.00 0.2890404 73.5
2020-09-16 14:35:00 88.2 22.7 45.3 88.2 88.2 1.0 8.7 4.9 200.7 316.9 0.00 0.2694717 73.6
2020-09-16 14:40:00 87.8 23.2 45.6 87.8 87.8 3.1 4.4 3.1 229.6 211.9 0.00 0.2457255 73.6
2020-09-16 14:45:00 87.4 27.4 49.7 87.4 87.4 1.9 5.8 3.2 201.8 220.9 0.00 0.2108354 73.6
2020-09-16 14:50:00 86.5 31.4 52.6 86.5 86.5 4.2 6.3 4.3 214.2 222.1 0.00 0.1882271 73.7
2020-09-16 14:55:00 86.9 24.0 45.8 86.9 86.9 5.6 5.6 4.0 145.1 191.5 0.00 0.1867277 73.7
2020-09-16 15:00:00 86.6 25.9 47.6 86.6 86.6 3.7 7.1 4.9 217.7 199.5 0.00 0.2013479 73.8
2020-09-16 15:05:00 87.6 26.4 48.8 87.6 87.6 3.1 5.3 3.6 235.3 207.1 0.00 0.2445344 73.8
2020-09-16 15:10:00 86.6 24.6 46.1 86.6 86.6 6.0 6.2 4.6 222.6 231.5 0.00 0.2021646 73.9
2020-09-16 15:15:00 86.5 26.5 48.1 86.5 86.5 2.6 6.2 3.7 211.5 189.3 0.00 0.1540244 73.9
2020-09-16 15:20:00 87.3 24.5 46.7 87.3 87.3 8.1 11.0 3.6 41.2 23.5 0.00 0.1203163 74.0
2020-09-16 15:25:00 87.0 14.7 33.2 87.0 87.0 18.0 23.0 12.8 45.4 45.7 0.00 0.1080739 74.0
2020-09-16 15:30:00 85.6 17.7 36.9 85.6 85.6 6.2 25.6 14.6 316.5 14.5 0.00 0.1285719 74.0
2020-09-16 15:35:00 86.7 13.5 31.0 86.7 86.7 4.9 9.4 5.4 252.3 331.5 0.00 0.1140231 74.1
2020-09-16 15:40:00 87.1 10.9 26.0 87.1 87.1 3.3 5.3 3.7 177.4 331.5 0.00 0.0734521 74.1
2020-09-16 15:45:00 87.1 14.1 32.3 87.1 87.1 6.5 7.8 4.7 32.7 71.0 0.00 0.0747225 74.1
2020-09-16 15:50:00 86.3 17.0 36.4 86.3 86.3 6.5 8.8 7.5 14.3 28.6 0.00 0.0908290 74.2
2020-09-16 15:55:00 85.6 23.2 43.8 85.6 85.6 5.5 7.4 5.8 326.1 343.5 0.00 0.1317196 74.2
2020-09-16 16:00:00 86.4 17.3 36.9 86.4 86.4 4.2 6.5 4.1 0.8 332.5 0.00 0.1592020 74.2
2020-09-16 16:05:00 87.7 17.7 38.6 87.7 87.7 4.2 4.6 4.0 343.9 339.8 0.00 0.1854531 74.2
2020-09-16 16:10:00 88.4 23.8 46.9 88.4 88.4 3.8 4.6 3.7 328.1 329.9 0.00 0.1717314 74.3
2020-09-16 16:15:00 88.2 21.0 43.3 88.2 88.2 4.0 5.6 4.6 327.0 342.3 0.00 0.1936635 74.3
2020-09-16 16:20:00 87.9 16.8 37.4 87.9 87.9 5.6 6.3 4.7 333.7 340.0 0.00 0.1195762 74.3
2020-09-16 16:25:00 87.7 16.6 36.9 87.7 87.7 20.3 26.7 10.6 282.7 309.8 0.00 0.2050136 74.3
2020-09-16 16:30:00 86.3 14.9 33.0 86.3 86.3 11.9 28.3 17.6 312.0 302.5 0.00 0.1315856 74.3
2020-09-16 16:35:00 86.3 15.1 33.3 86.3 86.3 6.2 16.2 10.3 295.9 301.7 0.00 0.0735739 74.3
2020-09-16 16:40:00 86.2 14.9 32.9 86.2 86.2 5.8 14.2 8.5 6.3 325.2 0.00 0.0590139 74.3
2020-09-16 16:45:00 85.3 19.2 38.6 85.3 85.3 5.1 6.0 4.7 7.1 357.8 0.00 0.0478010 74.3
2020-09-16 16:50:00 84.9 20.1 39.4 84.9 84.9 4.4 6.2 4.7 15.4 344.2 0.00 0.0461235 74.3
2020-09-16 16:55:00 84.1 26.8 46.3 84.1 84.1 2.2 5.8 3.9 250.4 311.0 0.00 0.0449050 74.3
2020-09-16 17:00:00 82.1 27.7 45.4 82.1 82.1 2.4 3.7 2.6 272.5 262.9 0.00 0.0446018 74.3
2020-09-16 17:05:00 81.4 28.3 45.5 81.4 81.4 1.2 2.2 1.7 271.7 253.0 0.00 0.0894553 74.3
2020-09-16 17:10:00 83.1 23.9 42.5 83.1 83.1 2.6 3.0 1.5 320.9 308.6 0.00 0.1010968 74.3
2020-09-16 17:15:00 84.3 24.8 44.4 84.3 84.3 1.7 2.8 1.8 201.8 250.1 0.00 0.1269539 74.3
2020-09-16 17:20:00 85.9 26.8 47.8 85.9 85.9 1.7 2.1 1.1 264.3 267.6 0.00 0.1198146 74.4
2020-09-16 17:25:00 86.3 26.1 47.6 86.3 86.3 1.5 2.1 1.6 287.9 253.8 0.00 0.1129395 74.4
2020-09-16 17:30:00 86.2 23.8 45.0 86.2 86.2 2.2 3.0 2.1 273.1 261.2 0.00 0.0876855 74.4
2020-09-16 17:35:00 85.9 26.2 47.2 85.9 85.9 1.5 3.0 2.1 229.7 228.7 0.00 0.0933373 74.4
2020-09-16 17:40:00 86.6 22.2 43.4 86.6 86.6 1.7 1.9 1.3 236.3 215.4 0.00 0.0874038 74.4
2020-09-16 17:45:00 86.6 28.6 50.3 86.6 86.6 2.4 2.4 1.4 179.5 202.8 0.00 0.0809237 74.3
2020-09-16 17:50:00 85.6 27.3 48.1 85.6 85.6 3.5 3.7 2.7 131.6 158.6 0.00 0.0751524 74.4
2020-09-16 17:55:00 85.6 30.4 51.0 85.6 85.6 4.0 4.6 3.5 154.7 133.3 0.00 0.0691844 74.3
2020-09-16 18:00:00 84.8 35.0 54.1 84.8 84.8 3.0 4.2 3.2 192.8 163.6 0.00 0.0634166 74.3
2020-09-16 18:05:00 83.0 40.0 56.2 83.0 82.4 2.6 2.8 2.3 203.0 212.4 0.00 0.0585322 74.3
2020-09-16 18:10:00 81.3 43.1 56.8 81.3 81.2 3.5 4.0 3.1 240.6 212.3 0.00 0.0548768 74.3
2020-09-16 18:15:00 81.3 38.2 53.4 81.3 81.3 2.6 3.7 3.1 246.8 244.5 0.00 0.0508035 74.3
2020-09-16 18:20:00 80.8 39.1 53.7 80.8 80.8 2.2 2.4 1.7 257.2 265.9 0.00 0.0448047 74.3
2020-09-16 18:25:00 79.3 46.7 57.1 79.3 79.3 2.4 3.0 2.3 212.4 278.9 0.00 0.0354093 74.3
2020-09-16 18:30:00 78.9 41.7 53.6 78.9 78.9 4.9 4.9 1.0 22.2 332.7 0.00 0.0309918 74.3
2020-09-16 18:35:00 81.0 33.4 49.5 81.0 81.0 3.7 8.8 4.6 59.3 78.8 0.00 0.0284813 74.3
2020-09-16 18:40:00 82.4 36.2 52.9 82.4 82.4 2.2 3.7 2.2 198.1 121.0 0.00 0.0247233 74.3
2020-09-16 18:45:00 79.6 42.6 54.8 79.6 79.6 2.1 6.2 3.0 50.8 176.3 0.00 0.0194947 74.3
2020-09-16 18:50:00 80.2 29.9 45.8 80.2 80.2 4.2 5.1 3.2 15.7 87.5 0.00 0.0112124 74.3
2020-09-16 18:55:00 81.8 25.7 43.3 81.8 81.8 4.0 4.7 4.0 2.6 14.4 0.00 0.0059868 74.3
2020-09-16 19:00:00 80.8 26.8 43.5 80.8 80.8 3.8 4.6 3.9 339.6 349.2 0.00 0.0040653 74.3
2020-09-16 19:05:00 79.6 33.8 48.6 79.6 79.6 3.1 4.7 3.6 286.0 333.7 0.00 0.0024131 74.3
2020-09-16 19:10:00 76.9 38.6 49.8 76.9 76.9 2.2 3.3 2.8 306.3 308.5 0.00 0.0004120 74.2
2020-09-16 19:15:00 74.8 42.9 50.8 74.8 74.8 2.4 2.6 2.3 289.4 307.6 0.00 0.0000000 74.3
2020-09-16 19:20:00 73.2 47.0 51.8 73.2 73.2 1.5 2.2 1.7 222.3 276.9 0.00 0.0000000 74.2
2020-09-16 19:25:00 71.5 49.3 51.5 71.5 71.5 1.9 2.1 1.7 276.6 274.8 0.00 0.0000000 74.2
2020-09-16 19:30:00 70.3 51.6 51.7 70.3 70.3 1.7 2.2 1.5 264.5 269.5 0.00 0.0000000 74.2
2020-09-16 19:35:00 69.2 53.9 51.8 69.2 69.2 1.7 2.1 1.6 264.7 277.0 0.00 0.0000000 74.2
2020-09-16 19:40:00 68.1 55.5 51.6 68.1 68.1 1.0 1.9 1.4 288.4 263.6 0.00 0.0000000 74.2
2020-09-16 19:45:00 67.5 58.5 52.4 67.5 67.5 1.7 1.9 1.4 268.7 267.6 0.00 0.0000000 74.1
2020-09-16 19:50:00 66.8 59.0 52.1 66.8 66.8 0.0 2.1 1.3 288.0 273.8 0.00 0.0000000 74.1
2020-09-16 19:55:00 66.2 59.3 51.6 66.2 66.2 0.0 0.0 0.0 140.9 0.0 0.00 0.0000000 74.1
2020-09-16 20:00:00 65.9 62.6 52.8 65.9 65.9 1.9 2.4 1.2 283.9 275.3 0.00 0.0000000 74.1
2020-09-16 20:05:00 65.4 63.5 52.7 65.4 65.4 3.0 3.3 2.9 295.6 288.5 0.00 0.0000000 74.0
2020-09-16 20:10:00 66.7 51.7 48.3 66.7 66.7 4.2 4.6 3.5 289.6 304.3 0.00 0.0000000 74.0
2020-09-16 20:15:00 68.4 46.0 46.8 68.4 68.4 3.8 4.4 3.8 333.2 314.7 0.00 0.0000000 74.0
2020-09-16 20:20:00 69.0 46.6 47.7 69.0 69.0 3.5 4.4 3.9 315.3 305.9 0.00 0.0000000 74.0
2020-09-16 20:25:00 70.3 32.4 39.4 70.3 70.3 4.6 4.7 3.9 347.7 326.1 0.00 0.0000000 73.9
2020-09-16 20:30:00 72.2 28.5 37.8 72.2 72.2 4.6 4.7 4.4 347.8 335.4 0.00 0.0000000 73.9
2020-09-16 20:35:00 72.8 26.9 36.7 72.8 72.8 3.5 4.4 3.7 348.6 338.0 0.00 0.0000000 73.9
2020-09-16 20:40:00 70.4 50.8 51.3 70.4 70.4 2.2 3.7 3.1 240.0 292.9 0.00 0.0000000 73.8
2020-09-16 20:45:00 67.4 53.8 50.1 67.4 67.4 1.7 2.1 1.1 175.7 221.2 0.00 0.0000000 73.8
2020-09-16 20:50:00 65.8 57.1 50.2 65.8 65.8 4.9 5.8 3.7 160.6 160.9 0.00 0.0000000 73.8
2020-09-16 20:55:00 65.5 64.3 53.1 65.5 65.5 4.0 4.4 3.6 209.1 184.0 0.00 0.0000000 73.7
2020-09-16 21:00:00 69.8 32.6 39.1 69.8 69.8 5.6 6.7 4.1 114.2 138.8 0.00 0.0001320 73.7
2020-09-16 21:05:00 74.7 29.1 40.4 74.7 74.7 5.3 7.8 4.8 116.8 111.4 0.00 0.0001997 73.7
2020-09-16 21:10:00 72.9 44.3 49.9 72.9 72.9 4.0 7.2 5.0 198.0 149.5 0.00 0.0000003 73.7
2020-09-16 21:15:00 69.2 48.6 49.0 69.2 69.2 2.8 4.6 3.4 217.2 200.7 0.00 0.0000000 73.6
2020-09-16 21:20:00 66.9 53.9 49.7 66.9 66.9 3.0 3.0 2.2 272.4 252.4 0.00 0.0000000 73.6
2020-09-16 21:25:00 65.5 55.4 49.1 65.5 65.5 1.9 3.8 2.6 231.9 260.6 0.00 0.0000000 73.6
2020-09-16 21:30:00 64.0 61.2 50.4 64.0 64.0 2.1 2.6 1.8 1.5 282.7 0.00 0.0000000 73.5
2020-09-16 21:35:00 62.7 65.8 51.1 62.7 62.7 4.4 5.5 3.9 317.3 294.3 0.00 0.0000000 73.5
2020-09-16 21:40:00 61.8 66.4 50.5 61.8 61.8 4.0 4.2 3.5 254.7 284.1 0.00 0.0000000 73.4
2020-09-16 21:45:00 61.8 67.1 50.8 61.8 61.8 1.9 4.2 2.4 31.5 299.9 0.00 0.0000000 73.4
2020-09-16 21:50:00 61.5 65.4 49.8 61.5 61.5 2.1 3.0 1.9 279.7 249.4 0.00 0.0000000 73.4
2020-09-16 21:55:00 63.3 54.8 46.8 63.3 63.3 0.0 2.4 1.5 334.4 225.5 0.00 0.0000403 73.4
2020-09-16 22:00:00 65.4 48.3 45.4 65.4 65.4 0.0 1.7 0.7 32.2 327.5 0.00 0.0001605 73.3
2020-09-16 22:05:00 66.4 47.0 45.6 66.4 66.4 0.0 0.8 0.0 0.1 312.0 0.00 0.0000433 73.3
2020-09-16 22:10:00 65.5 55.9 49.3 65.5 65.5 3.8 3.8 2.9 291.0 287.3 0.00 0.0000285 73.3
2020-09-16 22:15:00 63.9 58.9 49.2 63.9 63.9 2.1 3.8 3.1 308.4 288.8 0.00 0.0000000 73.3
2020-09-16 22:20:00 62.3 65.7 50.7 62.3 62.3 1.9 3.5 2.6 274.5 288.9 0.00 0.0000000 73.2
2020-09-16 22:25:00 61.2 69.4 51.1 61.2 61.2 1.0 3.5 2.6 232.1 275.7 0.00 0.0000000 73.2
2020-09-16 22:30:00 60.8 68.5 50.4 60.8 60.8 2.4 2.4 1.4 284.5 259.3 0.00 0.0000000 73.2
2020-09-16 22:35:00 60.5 70.7 51.0 60.5 60.5 3.1 3.1 2.2 299.5 287.5 0.00 0.0000000 73.1
2020-09-16 22:40:00 60.1 71.0 50.6 60.1 60.1 1.9 3.0 2.0 298.0 288.7 0.00 0.0000000 73.1
2020-09-16 22:45:00 59.8 72.9 51.1 59.8 59.8 1.5 2.8 1.8 2.7 283.3 0.00 0.0000000 73.1
2020-09-16 22:50:00 59.5 76.3 52.0 59.5 59.5 2.8 3.8 2.9 306.6 307.9 0.00 0.0000000 73.1
2020-09-16 22:55:00 59.3 79.4 52.9 59.3 59.3 3.8 4.0 2.7 321.4 296.6 0.00 0.0000000 73.0
2020-09-16 23:00:00 59.1 81.0 53.3 59.1 59.1 2.4 4.7 3.4 270.2 290.0 0.00 0.0000000 73.0
2020-09-16 23:05:00 59.0 80.0 52.8 59.0 59.0 1.9 3.1 2.3 250.2 254.0 0.00 0.0000000 73.0
2020-09-16 23:10:00 59.2 77.4 52.1 59.2 59.2 3.0 3.5 1.4 262.3 282.4 0.00 0.0000000 73.0
2020-09-16 23:15:00 59.2 74.2 51.0 59.2 59.2 3.1 5.1 3.2 279.3 278.0 0.00 0.0000000 72.9
2020-09-16 23:20:00 60.0 70.6 50.4 60.0 60.0 3.1 4.6 3.3 282.0 307.6 0.00 0.0000000 72.9
2020-09-16 23:25:00 60.5 68.9 50.3 60.5 60.5 6.0 6.5 4.4 293.9 298.3 0.00 0.0000000 72.9
2020-09-16 23:30:00 61.4 68.6 51.0 61.4 61.4 1.7 6.3 3.1 42.5 295.5 0.00 0.0000000 72.8
2020-09-16 23:35:00 69.4 34.8 40.4 69.4 69.4 4.9 11.5 6.0 119.6 46.8 0.00 0.0010706 72.8
2020-09-16 23:40:00 74.7 29.7 40.9 74.7 74.7 6.3 13.3 7.0 117.8 114.2 0.00 0.0007019 72.8
2020-09-16 23:45:00 74.8 30.5 41.7 74.8 74.8 5.5 7.2 4.5 53.3 116.8 0.00 0.0000000 72.8
2020-09-16 23:50:00 74.0 32.1 42.4 74.0 74.0 2.8 5.1 3.1 141.8 132.7 0.00 0.0000000 72.8
2020-09-16 23:55:00 71.7 38.9 45.3 71.7 71.7 3.7 4.9 3.1 164.3 161.1 0.00 0.0000000 72.8
2020-09-17 00:00:00 69.0 45.7 47.2 69.0 69.0 3.7 4.0 3.2 190.2 178.2 0.00 0.0000000 72.7

Data is courtesy of the NM Climate Center. DO NOT USE IN LEGAL PROCEEDINGS.